sensor_id;sensor_type;location;lat;lon;timestamp;P1;durP1;ratioP1;P2;durP2;ratioP2
64885;SDS011;51514;52.206;5.114;2023-07-31T00:01:45;3.00;;;1.70;;
64885;SDS011;51514;52.206;5.114;2023-07-31T00:04:10;2.53;;;1.60;;
64885;SDS011;51514;52.206;5.114;2023-07-31T00:06:38;2.60;;;1.65;;
64885;SDS011;51514;52.206;5.114;2023-07-31T00:09:03;2.38;;;1.70;;
64885;SDS011;51514;52.206;5.114;2023-07-31T00:11:29;3.30;;;1.70;;
64885;SDS011;51514;52.206;5.114;2023-07-31T00:13:54;2.33;;;1.52;;
64885;SDS011;51514;52.206;5.114;2023-07-31T00:16:19;2.35;;;1.52;;
64885;SDS011;51514;52.206;5.114;2023-07-31T00:18:45;2.80;;;1.70;;
64885;SDS011;51514;52.206;5.114;2023-07-31T00:21:10;1.58;;;1.15;;
64885;SDS011;51514;52.206;5.114;2023-07-31T00:23:36;2.05;;;1.60;;
64885;SDS011;51514;52.206;5.114;2023-07-31T00:26:01;2.78;;;1.65;;
64885;SDS011;51514;52.206;5.114;2023-07-31T00:28:26;3.45;;;1.67;;
64885;SDS011;51514;52.206;5.114;2023-07-31T00:30:53;2.78;;;1.80;;
64885;SDS011;51514;52.206;5.114;2023-07-31T00:33:19;2.35;;;1.33;;
64885;SDS011;51514;52.206;5.114;2023-07-31T00:35:44;3.28;;;1.70;;
64885;SDS011;51514;52.206;5.114;2023-07-31T00:38:09;2.25;;;1.60;;
64885;SDS011;51514;52.206;5.114;2023-07-31T00:40:35;2.13;;;1.33;;
64885;SDS011;51514;52.206;5.114;2023-07-31T00:43:04;4.15;;;2.03;;
64885;SDS011;51514;52.206;5.114;2023-07-31T00:45:30;2.42;;;1.27;;
64885;SDS011;51514;52.206;5.114;2023-07-31T00:47:57;2.78;;;1.67;;
64885;SDS011;51514;52.206;5.114;2023-07-31T00:50:24;4.63;;;1.77;;
64885;SDS011;51514;52.206;5.114;2023-07-31T00:52:50;2.40;;;1.63;;
64885;SDS011;51514;52.206;5.114;2023-07-31T00:55:15;4.75;;;2.10;;
64885;SDS011;51514;52.206;5.114;2023-07-31T00:57:41;3.00;;;1.73;;
64885;SDS011;51514;52.206;5.114;2023-07-31T01:00:07;2.88;;;2.00;;
64885;SDS011;51514;52.206;5.114;2023-07-31T01:02:33;3.42;;;1.90;;
64885;SDS011;51514;52.206;5.114;2023-07-31T01:05:00;4.28;;;1.98;;
64885;SDS011;51514;52.206;5.114;2023-07-31T01:07:28;3.70;;;1.75;;
64885;SDS011;51514;52.206;5.114;2023-07-31T01:10:07;3.38;;;1.92;;
64885;SDS011;51514;52.206;5.114;2023-07-31T01:12:44;2.80;;;1.70;;
64885;SDS011;51514;52.206;5.114;2023-07-31T01:15:11;4.97;;;1.50;;
64885;SDS011;51514;52.206;5.114;2023-07-31T01:17:40;3.78;;;2.08;;
64885;SDS011;51514;52.206;5.114;2023-07-31T01:20:10;2.97;;;1.83;;
64885;SDS011;51514;52.206;5.114;2023-07-31T01:28:13;2.28;;;1.70;;
64885;SDS011;51514;52.206;5.114;2023-07-31T01:30:44;3.42;;;1.90;;
64885;SDS011;51514;52.206;5.114;2023-07-31T01:35:39;3.63;;;1.88;;
64885;SDS011;51514;52.206;5.114;2023-07-31T01:38:05;3.28;;;1.73;;
64885;SDS011;51514;52.206;5.114;2023-07-31T01:40:31;2.08;;;1.38;;
64885;SDS011;51514;52.206;5.114;2023-07-31T01:42:56;3.30;;;1.88;;
64885;SDS011;51514;52.206;5.114;2023-07-31T01:45:22;2.67;;;1.80;;
64885;SDS011;51514;52.206;5.114;2023-07-31T01:47:47;3.45;;;1.88;;
64885;SDS011;51514;52.206;5.114;2023-07-31T01:50:12;3.90;;;1.98;;
64885;SDS011;51514;52.206;5.114;2023-07-31T01:52:38;3.80;;;2.03;;
64885;SDS011;51514;52.206;5.114;2023-07-31T01:55:03;3.67;;;2.10;;
64885;SDS011;51514;52.206;5.114;2023-07-31T01:57:29;3.28;;;1.60;;
64885;SDS011;51514;52.206;5.114;2023-07-31T01:59:54;2.38;;;1.42;;
64885;SDS011;51514;52.206;5.114;2023-07-31T02:02:20;3.40;;;1.80;;
64885;SDS011;51514;52.206;5.114;2023-07-31T02:04:45;2.58;;;1.70;;
64885;SDS011;51514;52.206;5.114;2023-07-31T02:07:11;3.75;;;2.05;;
64885;SDS011;51514;52.206;5.114;2023-07-31T02:09:37;2.13;;;1.60;;
64885;SDS011;51514;52.206;5.114;2023-07-31T02:12:02;4.57;;;2.20;;
64885;SDS011;51514;52.206;5.114;2023-07-31T02:14:28;3.97;;;1.70;;
64885;SDS011;51514;52.206;5.114;2023-07-31T02:16:53;4.03;;;1.92;;
64885;SDS011;51514;52.206;5.114;2023-07-31T02:19:18;3.67;;;2.15;;
64885;SDS011;51514;52.206;5.114;2023-07-31T02:21:44;3.53;;;1.83;;
64885;SDS011;51514;52.206;5.114;2023-07-31T02:24:09;3.67;;;1.90;;
64885;SDS011;51514;52.206;5.114;2023-07-31T02:26:35;4.50;;;2.10;;
64885;SDS011;51514;52.206;5.114;2023-07-31T02:29:00;2.80;;;1.73;;
64885;SDS011;51514;52.206;5.114;2023-07-31T02:31:25;4.38;;;2.20;;
64885;SDS011;51514;52.206;5.114;2023-07-31T02:33:51;4.28;;;2.40;;
64885;SDS011;51514;52.206;5.114;2023-07-31T02:36:16;4.40;;;2.25;;
64885;SDS011;51514;52.206;5.114;2023-07-31T02:38:41;3.90;;;1.98;;
64885;SDS011;51514;52.206;5.114;2023-07-31T02:41:07;4.05;;;2.28;;
64885;SDS011;51514;52.206;5.114;2023-07-31T02:43:32;4.90;;;2.22;;
64885;SDS011;51514;52.206;5.114;2023-07-31T02:45:59;3.65;;;2.42;;
64885;SDS011;51514;52.206;5.114;2023-07-31T02:48:24;4.50;;;2.20;;
64885;SDS011;51514;52.206;5.114;2023-07-31T02:50:50;5.00;;;2.50;;
64885;SDS011;51514;52.206;5.114;2023-07-31T02:53:15;3.88;;;2.17;;
64885;SDS011;51514;52.206;5.114;2023-07-31T02:55:40;3.35;;;1.90;;
64885;SDS011;51514;52.206;5.114;2023-07-31T02:58:06;4.63;;;2.22;;
64885;SDS011;51514;52.206;5.114;2023-07-31T03:00:31;5.53;;;2.50;;
64885;SDS011;51514;52.206;5.114;2023-07-31T03:02:57;4.72;;;2.03;;
64885;SDS011;51514;52.206;5.114;2023-07-31T03:05:22;4.75;;;2.47;;
64885;SDS011;51514;52.206;5.114;2023-07-31T03:07:47;4.28;;;2.10;;
64885;SDS011;51514;52.206;5.114;2023-07-31T03:10:13;4.35;;;2.72;;
64885;SDS011;51514;52.206;5.114;2023-07-31T03:12:39;4.30;;;2.50;;
64885;SDS011;51514;52.206;5.114;2023-07-31T03:15:05;3.67;;;2.28;;
64885;SDS011;51514;52.206;5.114;2023-07-31T03:17:32;5.05;;;3.08;;
64885;SDS011;51514;52.206;5.114;2023-07-31T03:19:57;4.28;;;2.47;;
64885;SDS011;51514;52.206;5.114;2023-07-31T03:22:23;5.30;;;2.50;;
64885;SDS011;51514;52.206;5.114;2023-07-31T03:24:48;4.65;;;2.42;;
64885;SDS011;51514;52.206;5.114;2023-07-31T03:27:13;5.20;;;2.50;;
64885;SDS011;51514;52.206;5.114;2023-07-31T03:29:39;4.85;;;2.50;;
64885;SDS011;51514;52.206;5.114;2023-07-31T03:32:04;5.35;;;3.00;;
64885;SDS011;51514;52.206;5.114;2023-07-31T03:34:30;5.95;;;2.75;;
64885;SDS011;51514;52.206;5.114;2023-07-31T03:36:57;4.93;;;2.97;;
64885;SDS011;51514;52.206;5.114;2023-07-31T03:39:22;5.82;;;2.70;;
64885;SDS011;51514;52.206;5.114;2023-07-31T03:41:48;5.47;;;2.70;;
64885;SDS011;51514;52.206;5.114;2023-07-31T03:44:13;5.40;;;2.80;;
64885;SDS011;51514;52.206;5.114;2023-07-31T03:46:39;6.22;;;2.72;;
64885;SDS011;51514;52.206;5.114;2023-07-31T03:49:04;4.80;;;2.70;;
64885;SDS011;51514;52.206;5.114;2023-07-31T03:51:29;5.53;;;2.58;;
64885;SDS011;51514;52.206;5.114;2023-07-31T03:53:55;5.95;;;2.63;;
64885;SDS011;51514;52.206;5.114;2023-07-31T03:56:20;5.72;;;3.00;;
64885;SDS011;51514;52.206;5.114;2023-07-31T03:58:45;4.88;;;2.55;;
64885;SDS011;51514;52.206;5.114;2023-07-31T04:01:11;5.38;;;2.65;;
64885;SDS011;51514;52.206;5.114;2023-07-31T04:03:36;6.30;;;2.83;;
64885;SDS011;51514;52.206;5.114;2023-07-31T04:06:01;5.25;;;2.85;;
64885;SDS011;51514;52.206;5.114;2023-07-31T04:08:27;4.88;;;2.40;;
64885;SDS011;51514;52.206;5.114;2023-07-31T04:10:53;7.55;;;2.72;;
64885;SDS011;51514;52.206;5.114;2023-07-31T04:13:18;7.57;;;2.80;;
64885;SDS011;51514;52.206;5.114;2023-07-31T04:15:48;5.88;;;3.03;;
64885;SDS011;51514;52.206;5.114;2023-07-31T04:18:14;6.60;;;3.15;;
64885;SDS011;51514;52.206;5.114;2023-07-31T04:20:39;6.70;;;3.30;;
64885;SDS011;51514;52.206;5.114;2023-07-31T04:23:05;5.53;;;3.20;;
64885;SDS011;51514;52.206;5.114;2023-07-31T04:25:30;7.15;;;3.38;;
64885;SDS011;51514;52.206;5.114;2023-07-31T04:27:56;5.38;;;2.95;;
64885;SDS011;51514;52.206;5.114;2023-07-31T04:30:22;4.35;;;2.42;;
64885;SDS011;51514;52.206;5.114;2023-07-31T04:32:47;6.35;;;3.33;;
64885;SDS011;51514;52.206;5.114;2023-07-31T04:35:12;6.57;;;3.53;;
64885;SDS011;51514;52.206;5.114;2023-07-31T04:37:38;6.82;;;3.40;;
64885;SDS011;51514;52.206;5.114;2023-07-31T04:40:03;6.38;;;3.40;;
64885;SDS011;51514;52.206;5.114;2023-07-31T04:42:29;6.43;;;3.60;;
64885;SDS011;51514;52.206;5.114;2023-07-31T04:44:54;5.80;;;2.85;;
64885;SDS011;51514;52.206;5.114;2023-07-31T04:47:19;6.35;;;3.00;;
64885;SDS011;51514;52.206;5.114;2023-07-31T04:49:45;6.72;;;3.28;;
64885;SDS011;51514;52.206;5.114;2023-07-31T04:52:10;6.90;;;3.55;;
64885;SDS011;51514;52.206;5.114;2023-07-31T04:54:35;7.07;;;3.22;;
64885;SDS011;51514;52.206;5.114;2023-07-31T04:57:01;6.53;;;3.03;;
64885;SDS011;51514;52.206;5.114;2023-07-31T04:59:26;6.68;;;3.28;;
64885;SDS011;51514;52.206;5.114;2023-07-31T05:01:52;7.40;;;3.35;;
64885;SDS011;51514;52.206;5.114;2023-07-31T05:04:17;6.30;;;3.28;;
64885;SDS011;51514;52.206;5.114;2023-07-31T05:06:43;6.28;;;3.42;;
64885;SDS011;51514;52.206;5.114;2023-07-31T05:09:08;5.25;;;3.00;;
64885;SDS011;51514;52.206;5.114;2023-07-31T05:11:34;6.60;;;2.97;;
64885;SDS011;51514;52.206;5.114;2023-07-31T05:14:00;6.50;;;3.20;;
64885;SDS011;51514;52.206;5.114;2023-07-31T05:16:25;8.27;;;3.22;;
64885;SDS011;51514;52.206;5.114;2023-07-31T05:18:51;7.40;;;3.83;;
64885;SDS011;51514;52.206;5.114;2023-07-31T05:21:16;5.93;;;3.33;;
64885;SDS011;51514;52.206;5.114;2023-07-31T05:23:41;5.82;;;3.20;;
64885;SDS011;51514;52.206;5.114;2023-07-31T05:26:07;6.55;;;3.33;;
64885;SDS011;51514;52.206;5.114;2023-07-31T05:28:34;6.47;;;3.42;;
64885;SDS011;51514;52.206;5.114;2023-07-31T05:31:01;7.53;;;3.40;;
64885;SDS011;51514;52.206;5.114;2023-07-31T05:33:29;6.70;;;2.83;;
64885;SDS011;51514;52.206;5.114;2023-07-31T05:35:55;6.68;;;3.45;;
64885;SDS011;51514;52.206;5.114;2023-07-31T05:38:21;6.97;;;3.50;;
64885;SDS011;51514;52.206;5.114;2023-07-31T05:40:46;6.65;;;3.28;;
64885;SDS011;51514;52.206;5.114;2023-07-31T05:43:12;5.25;;;3.05;;
64885;SDS011;51514;52.206;5.114;2023-07-31T05:45:37;6.75;;;3.30;;
64885;SDS011;51514;52.206;5.114;2023-07-31T05:48:05;7.78;;;3.95;;
64885;SDS011;51514;52.206;5.114;2023-07-31T05:50:30;5.45;;;3.40;;
64885;SDS011;51514;52.206;5.114;2023-07-31T05:52:55;8.15;;;3.10;;
64885;SDS011;51514;52.206;5.114;2023-07-31T05:55:21;4.97;;;2.95;;
64885;SDS011;51514;52.206;5.114;2023-07-31T05:57:46;5.28;;;2.78;;
64885;SDS011;51514;52.206;5.114;2023-07-31T06:00:12;6.38;;;3.42;;
64885;SDS011;51514;52.206;5.114;2023-07-31T06:02:38;4.85;;;2.60;;
64885;SDS011;51514;52.206;5.114;2023-07-31T06:05:04;5.78;;;3.20;;
64885;SDS011;51514;52.206;5.114;2023-07-31T06:07:31;6.30;;;3.05;;
64885;SDS011;51514;52.206;5.114;2023-07-31T06:09:56;5.82;;;3.20;;
64885;SDS011;51514;52.206;5.114;2023-07-31T06:12:27;7.20;;;3.35;;
64885;SDS011;51514;52.206;5.114;2023-07-31T06:14:52;5.47;;;3.00;;
64885;SDS011;51514;52.206;5.114;2023-07-31T06:17:17;6.20;;;3.00;;
64885;SDS011;51514;52.206;5.114;2023-07-31T06:19:43;4.53;;;2.95;;
64885;SDS011;51514;52.206;5.114;2023-07-31T06:22:08;5.25;;;2.65;;
64885;SDS011;51514;52.206;5.114;2023-07-31T06:24:34;4.68;;;2.65;;
64885;SDS011;51514;52.206;5.114;2023-07-31T06:26:59;5.32;;;2.83;;
64885;SDS011;51514;52.206;5.114;2023-07-31T06:29:25;6.00;;;2.95;;
64885;SDS011;51514;52.206;5.114;2023-07-31T06:31:50;5.05;;;2.97;;
64885;SDS011;51514;52.206;5.114;2023-07-31T06:34:15;5.07;;;3.03;;
64885;SDS011;51514;52.206;5.114;2023-07-31T06:36:41;4.82;;;3.45;;
64885;SDS011;51514;52.206;5.114;2023-07-31T06:39:06;5.18;;;2.83;;
64885;SDS011;51514;52.206;5.114;2023-07-31T06:41:31;6.03;;;2.95;;
64885;SDS011;51514;52.206;5.114;2023-07-31T06:43:57;5.95;;;3.03;;
64885;SDS011;51514;52.206;5.114;2023-07-31T06:46:22;4.82;;;3.15;;
64885;SDS011;51514;52.206;5.114;2023-07-31T06:48:48;5.03;;;2.50;;
64885;SDS011;51514;52.206;5.114;2023-07-31T06:51:13;5.82;;;2.92;;
64885;SDS011;51514;52.206;5.114;2023-07-31T06:53:38;5.55;;;2.60;;
64885;SDS011;51514;52.206;5.114;2023-07-31T06:56:04;5.63;;;2.60;;
64885;SDS011;51514;52.206;5.114;2023-07-31T06:58:29;4.45;;;2.75;;
64885;SDS011;51514;52.206;5.114;2023-07-31T07:00:54;6.18;;;2.55;;
64885;SDS011;51514;52.206;5.114;2023-07-31T07:03:20;4.60;;;2.80;;
64885;SDS011;51514;52.206;5.114;2023-07-31T07:05:45;4.78;;;2.75;;
64885;SDS011;51514;52.206;5.114;2023-07-31T07:08:11;5.22;;;2.60;;
64885;SDS011;51514;52.206;5.114;2023-07-31T07:10:36;5.40;;;3.10;;
64885;SDS011;51514;52.206;5.114;2023-07-31T07:15:56;5.60;;;2.95;;
64885;SDS011;51514;52.206;5.114;2023-07-31T07:18:21;6.07;;;3.00;;
64885;SDS011;51514;52.206;5.114;2023-07-31T07:20:49;4.20;;;2.35;;
64885;SDS011;51514;52.206;5.114;2023-07-31T07:23:15;4.65;;;2.78;;
64885;SDS011;51514;52.206;5.114;2023-07-31T07:25:41;5.25;;;2.53;;
64885;SDS011;51514;52.206;5.114;2023-07-31T07:28:07;6.00;;;2.67;;
64885;SDS011;51514;52.206;5.114;2023-07-31T07:30:32;4.38;;;2.90;;
64885;SDS011;51514;52.206;5.114;2023-07-31T07:32:57;4.40;;;2.67;;
64885;SDS011;51514;52.206;5.114;2023-07-31T07:35:23;3.85;;;2.40;;
64885;SDS011;51514;52.206;5.114;2023-07-31T07:37:48;5.47;;;2.60;;
64885;SDS011;51514;52.206;5.114;2023-07-31T07:40:17;4.82;;;2.85;;
64885;SDS011;51514;52.206;5.114;2023-07-31T07:42:42;4.75;;;2.90;;
64885;SDS011;51514;52.206;5.114;2023-07-31T07:45:07;4.80;;;2.45;;
64885;SDS011;51514;52.206;5.114;2023-07-31T07:47:37;3.85;;;2.80;;
64885;SDS011;51514;52.206;5.114;2023-07-31T07:50:03;4.95;;;2.70;;
64885;SDS011;51514;52.206;5.114;2023-07-31T07:52:29;4.80;;;2.78;;
64885;SDS011;51514;52.206;5.114;2023-07-31T07:54:54;4.07;;;2.42;;
64885;SDS011;51514;52.206;5.114;2023-07-31T07:57:20;3.72;;;2.00;;
64885;SDS011;51514;52.206;5.114;2023-07-31T07:59:46;4.07;;;2.33;;
64885;SDS011;51514;52.206;5.114;2023-07-31T08:02:11;4.60;;;2.90;;
64885;SDS011;51514;52.206;5.114;2023-07-31T08:04:36;4.50;;;2.30;;
64885;SDS011;51514;52.206;5.114;2023-07-31T08:07:02;3.47;;;2.20;;
64885;SDS011;51514;52.206;5.114;2023-07-31T08:09:27;3.58;;;2.13;;
64885;SDS011;51514;52.206;5.114;2023-07-31T08:11:53;4.20;;;2.42;;
64885;SDS011;51514;52.206;5.114;2023-07-31T08:14:19;3.70;;;2.42;;
64885;SDS011;51514;52.206;5.114;2023-07-31T08:16:45;3.53;;;1.92;;
64885;SDS011;51514;52.206;5.114;2023-07-31T08:19:10;4.07;;;2.20;;
64885;SDS011;51514;52.206;5.114;2023-07-31T08:21:36;3.40;;;1.80;;
64885;SDS011;51514;52.206;5.114;2023-07-31T08:24:01;3.60;;;2.20;;
64885;SDS011;51514;52.206;5.114;2023-07-31T08:26:27;3.28;;;2.08;;
64885;SDS011;51514;52.206;5.114;2023-07-31T08:28:52;3.15;;;2.03;;
64885;SDS011;51514;52.206;5.114;2023-07-31T08:31:18;4.43;;;2.25;;
64885;SDS011;51514;52.206;5.114;2023-07-31T08:33:44;3.35;;;2.10;;
64885;SDS011;51514;52.206;5.114;2023-07-31T08:36:09;3.38;;;2.03;;
64885;SDS011;51514;52.206;5.114;2023-07-31T08:38:35;4.57;;;2.25;;
64885;SDS011;51514;52.206;5.114;2023-07-31T08:41:02;4.55;;;2.28;;
64885;SDS011;51514;52.206;5.114;2023-07-31T08:43:28;2.97;;;1.90;;
64885;SDS011;51514;52.206;5.114;2023-07-31T08:45:54;4.43;;;2.28;;
64885;SDS011;51514;52.206;5.114;2023-07-31T08:48:23;2.85;;;1.85;;
64885;SDS011;51514;52.206;5.114;2023-07-31T08:53:16;3.00;;;1.70;;
64885;SDS011;51514;52.206;5.114;2023-07-31T08:55:42;2.88;;;1.77;;
64885;SDS011;51514;52.206;5.114;2023-07-31T08:58:09;2.83;;;1.80;;
64885;SDS011;51514;52.206;5.114;2023-07-31T09:00:37;4.53;;;2.60;;
64885;SDS011;51514;52.206;5.114;2023-07-31T09:05:35;2.58;;;1.83;;
64885;SDS011;51514;52.206;5.114;2023-07-31T09:08:02;3.22;;;1.45;;
64885;SDS011;51514;52.206;5.114;2023-07-31T09:10:30;3.27;;;1.77;;
64885;SDS011;51514;52.206;5.114;2023-07-31T09:12:55;2.78;;;1.77;;
64885;SDS011;51514;52.206;5.114;2023-07-31T09:15:23;2.13;;;1.48;;
64885;SDS011;51514;52.206;5.114;2023-07-31T09:17:49;2.80;;;1.50;;
64885;SDS011;51514;52.206;5.114;2023-07-31T09:20:25;2.85;;;1.60;;
64885;SDS011;51514;52.206;5.114;2023-07-31T09:22:50;2.03;;;1.42;;
64885;SDS011;51514;52.206;5.114;2023-07-31T09:25:25;3.00;;;1.70;;
64885;SDS011;51514;52.206;5.114;2023-07-31T09:30:18;2.95;;;1.80;;
64885;SDS011;51514;52.206;5.114;2023-07-31T09:32:44;2.60;;;1.40;;
64885;SDS011;51514;52.206;5.114;2023-07-31T09:37:44;2.30;;;1.40;;
64885;SDS011;51514;52.206;5.114;2023-07-31T09:42:49;3.67;;;1.70;;
64885;SDS011;51514;52.206;5.114;2023-07-31T09:45:15;2.45;;;1.30;;
64885;SDS011;51514;52.206;5.114;2023-07-31T09:47:45;3.30;;;1.50;;
64885;SDS011;51514;52.206;5.114;2023-07-31T09:50:12;2.97;;;1.55;;
64885;SDS011;51514;52.206;5.114;2023-07-31T09:52:39;3.28;;;1.40;;
64885;SDS011;51514;52.206;5.114;2023-07-31T09:55:05;1.83;;;1.42;;
64885;SDS011;51514;52.206;5.114;2023-07-31T09:57:31;1.60;;;1.23;;
64885;SDS011;51514;52.206;5.114;2023-07-31T09:59:57;1.85;;;1.50;;
64885;SDS011;51514;52.206;5.114;2023-07-31T10:02:23;2.85;;;1.70;;
64885;SDS011;51514;52.206;5.114;2023-07-31T10:04:49;2.28;;;1.40;;
64885;SDS011;51514;52.206;5.114;2023-07-31T10:07:16;4.90;;;1.85;;
64885;SDS011;51514;52.206;5.114;2023-07-31T10:09:43;2.67;;;1.48;;
64885;SDS011;51514;52.206;5.114;2023-07-31T10:12:10;2.28;;;1.33;;
64885;SDS011;51514;52.206;5.114;2023-07-31T10:14:39;2.83;;;1.83;;
64885;SDS011;51514;52.206;5.114;2023-07-31T10:17:06;2.25;;;1.13;;
64885;SDS011;51514;52.206;5.114;2023-07-31T10:19:35;2.95;;;1.55;;
64885;SDS011;51514;52.206;5.114;2023-07-31T10:22:02;2.60;;;1.50;;
64885;SDS011;51514;52.206;5.114;2023-07-31T10:24:28;2.08;;;1.50;;
64885;SDS011;51514;52.206;5.114;2023-07-31T10:26:55;1.88;;;1.25;;
64885;SDS011;51514;52.206;5.114;2023-07-31T10:29:24;2.20;;;1.17;;
64885;SDS011;51514;52.206;5.114;2023-07-31T10:31:50;2.22;;;1.35;;
64885;SDS011;51514;52.206;5.114;2023-07-31T10:34:17;1.92;;;1.13;;
64885;SDS011;51514;52.206;5.114;2023-07-31T10:36:42;1.52;;;1.30;;
64885;SDS011;51514;52.206;5.114;2023-07-31T10:42:08;2.80;;;1.45;;
64885;SDS011;51514;52.206;5.114;2023-07-31T10:44:34;1.95;;;1.27;;
64885;SDS011;51514;52.206;5.114;2023-07-31T10:47:00;2.10;;;1.58;;
64885;SDS011;51514;52.206;5.114;2023-07-31T10:49:27;1.77;;;1.23;;
64885;SDS011;51514;52.206;5.114;2023-07-31T10:51:56;2.45;;;1.35;;
64885;SDS011;51514;52.206;5.114;2023-07-31T10:54:22;2.83;;;1.45;;
64885;SDS011;51514;52.206;5.114;2023-07-31T10:56:50;1.88;;;1.23;;
64885;SDS011;51514;52.206;5.114;2023-07-31T10:59:26;2.30;;;1.27;;
64885;SDS011;51514;52.206;5.114;2023-07-31T11:01:55;1.77;;;1.15;;
64885;SDS011;51514;52.206;5.114;2023-07-31T11:04:28;1.70;;;1.33;;
64885;SDS011;51514;52.206;5.114;2023-07-31T11:06:59;1.63;;;1.08;;
64885;SDS011;51514;52.206;5.114;2023-07-31T11:09:32;1.85;;;1.08;;
64885;SDS011;51514;52.206;5.114;2023-07-31T11:12:06;2.38;;;1.13;;
64885;SDS011;51514;52.206;5.114;2023-07-31T11:14:53;2.50;;;1.80;;
64885;SDS011;51514;52.206;5.114;2023-07-31T11:17:26;2.35;;;1.20;;
64885;SDS011;51514;52.206;5.114;2023-07-31T11:19:51;2.13;;;1.40;;
64885;SDS011;51514;52.206;5.114;2023-07-31T11:22:17;1.40;;;0.90;;
64885;SDS011;51514;52.206;5.114;2023-07-31T11:24:43;2.60;;;1.40;;
64885;SDS011;51514;52.206;5.114;2023-07-31T11:27:08;1.98;;;1.27;;
64885;SDS011;51514;52.206;5.114;2023-07-31T11:29:37;1.10;;;0.93;;
64885;SDS011;51514;52.206;5.114;2023-07-31T11:32:15;1.60;;;1.10;;
64885;SDS011;51514;52.206;5.114;2023-07-31T11:34:54;2.33;;;1.38;;
64885;SDS011;51514;52.206;5.114;2023-07-31T11:37:20;1.38;;;1.10;;
64885;SDS011;51514;52.206;5.114;2023-07-31T11:40:01;1.35;;;1.02;;
64885;SDS011;51514;52.206;5.114;2023-07-31T11:42:27;2.15;;;1.02;;
64885;SDS011;51514;52.206;5.114;2023-07-31T11:44:52;3.17;;;1.20;;
64885;SDS011;51514;52.206;5.114;2023-07-31T11:47:17;2.78;;;1.58;;
64885;SDS011;51514;52.206;5.114;2023-07-31T11:49:43;1.23;;;1.00;;
64885;SDS011;51514;52.206;5.114;2023-07-31T11:52:09;3.00;;;1.10;;
64885;SDS011;51514;52.206;5.114;2023-07-31T11:54:35;1.73;;;1.05;;
64885;SDS011;51514;52.206;5.114;2023-07-31T11:57:00;2.47;;;1.20;;
64885;SDS011;51514;52.206;5.114;2023-07-31T11:59:27;1.92;;;1.20;;
64885;SDS011;51514;52.206;5.114;2023-07-31T12:01:53;2.50;;;1.48;;
64885;SDS011;51514;52.206;5.114;2023-07-31T12:04:19;3.20;;;1.40;;
64885;SDS011;51514;52.206;5.114;2023-07-31T12:06:48;1.88;;;1.27;;
64885;SDS011;51514;52.206;5.114;2023-07-31T12:09:19;2.58;;;1.33;;
64885;SDS011;51514;52.206;5.114;2023-07-31T12:11:47;2.92;;;1.33;;
64885;SDS011;51514;52.206;5.114;2023-07-31T12:14:20;2.17;;;1.10;;
64885;SDS011;51514;52.206;5.114;2023-07-31T12:33:05;1.85;;;1.25;;
64885;SDS011;51514;52.206;5.114;2023-07-31T12:38:16;1.60;;;1.20;;
64885;SDS011;51514;52.206;5.114;2023-07-31T12:41:06;2.35;;;1.23;;
64885;SDS011;51514;52.206;5.114;2023-07-31T12:43:35;1.52;;;1.08;;
64885;SDS011;51514;52.206;5.114;2023-07-31T12:46:01;1.85;;;1.33;;
64885;SDS011;51514;52.206;5.114;2023-07-31T12:48:26;1.83;;;1.20;;
64885;SDS011;51514;52.206;5.114;2023-07-31T12:50:52;2.67;;;1.20;;
64885;SDS011;51514;52.206;5.114;2023-07-31T12:53:17;1.88;;;1.20;;
64885;SDS011;51514;52.206;5.114;2023-07-31T12:55:42;3.45;;;1.20;;
64885;SDS011;51514;52.206;5.114;2023-07-31T12:58:08;2.42;;;1.30;;
64885;SDS011;51514;52.206;5.114;2023-07-31T13:00:34;2.47;;;1.23;;
64885;SDS011;51514;52.206;5.114;2023-07-31T13:03:00;1.77;;;1.25;;
64885;SDS011;51514;52.206;5.114;2023-07-31T13:05:26;3.78;;;1.70;;
64885;SDS011;51514;52.206;5.114;2023-07-31T13:07:52;2.53;;;1.30;;
64885;SDS011;51514;52.206;5.114;2023-07-31T13:10:18;2.00;;;1.35;;
64885;SDS011;51514;52.206;5.114;2023-07-31T13:12:43;3.28;;;1.05;;
64885;SDS011;51514;52.206;5.114;2023-07-31T13:15:09;4.13;;;1.80;;
64885;SDS011;51514;52.206;5.114;2023-07-31T13:17:35;1.88;;;1.33;;
64885;SDS011;51514;52.206;5.114;2023-07-31T13:20:00;4.50;;;1.70;;
64885;SDS011;51514;52.206;5.114;2023-07-31T13:22:25;3.72;;;1.55;;
64885;SDS011;51514;52.206;5.114;2023-07-31T13:24:51;2.33;;;1.52;;
64885;SDS011;51514;52.206;5.114;2023-07-31T13:27:17;2.35;;;1.35;;
64885;SDS011;51514;52.206;5.114;2023-07-31T13:29:44;3.70;;;1.45;;
64885;SDS011;51514;52.206;5.114;2023-07-31T13:32:10;2.85;;;1.50;;
64885;SDS011;51514;52.206;5.114;2023-07-31T13:34:36;2.65;;;1.25;;
64885;SDS011;51514;52.206;5.114;2023-07-31T13:37:01;2.55;;;1.33;;
64885;SDS011;51514;52.206;5.114;2023-07-31T13:39:27;2.42;;;1.60;;
64885;SDS011;51514;52.206;5.114;2023-07-31T13:41:53;2.53;;;1.50;;
64885;SDS011;51514;52.206;5.114;2023-07-31T13:44:18;2.60;;;1.25;;
64885;SDS011;51514;52.206;5.114;2023-07-31T13:46:44;3.45;;;1.33;;
64885;SDS011;51514;52.206;5.114;2023-07-31T13:49:09;3.30;;;1.48;;
64885;SDS011;51514;52.206;5.114;2023-07-31T13:51:34;2.83;;;1.48;;
64885;SDS011;51514;52.206;5.114;2023-07-31T13:54:00;1.80;;;1.05;;
64885;SDS011;51514;52.206;5.114;2023-07-31T13:56:26;2.47;;;1.73;;
64885;SDS011;51514;52.206;5.114;2023-07-31T13:58:52;2.88;;;1.40;;
64885;SDS011;51514;52.206;5.114;2023-07-31T14:01:17;2.25;;;1.40;;
64885;SDS011;51514;52.206;5.114;2023-07-31T14:03:42;2.53;;;1.80;;
64885;SDS011;51514;52.206;5.114;2023-07-31T14:06:08;3.40;;;1.48;;
64885;SDS011;51514;52.206;5.114;2023-07-31T14:08:33;2.25;;;1.35;;
64885;SDS011;51514;52.206;5.114;2023-07-31T14:10:58;1.98;;;1.17;;
64885;SDS011;51514;52.206;5.114;2023-07-31T14:13:24;3.55;;;1.98;;
64885;SDS011;51514;52.206;5.114;2023-07-31T14:15:49;4.30;;;1.73;;
64885;SDS011;51514;52.206;5.114;2023-07-31T14:18:15;2.75;;;1.40;;
64885;SDS011;51514;52.206;5.114;2023-07-31T14:20:40;2.83;;;1.52;;
64885;SDS011;51514;52.206;5.114;2023-07-31T14:23:05;1.75;;;1.25;;
64885;SDS011;51514;52.206;5.114;2023-07-31T14:25:31;4.13;;;1.80;;
64885;SDS011;51514;52.206;5.114;2023-07-31T14:27:56;1.85;;;1.33;;
64885;SDS011;51514;52.206;5.114;2023-07-31T14:30:21;2.40;;;1.40;;
64885;SDS011;51514;52.206;5.114;2023-07-31T14:32:48;2.53;;;1.20;;
64885;SDS011;51514;52.206;5.114;2023-07-31T14:35:13;2.30;;;1.58;;
64885;SDS011;51514;52.206;5.114;2023-07-31T14:37:39;3.42;;;1.83;;
64885;SDS011;51514;52.206;5.114;2023-07-31T14:40:07;2.63;;;1.70;;
64885;SDS011;51514;52.206;5.114;2023-07-31T14:42:35;1.65;;;1.00;;
64885;SDS011;51514;52.206;5.114;2023-07-31T14:45:01;3.08;;;1.45;;
64885;SDS011;51514;52.206;5.114;2023-07-31T14:47:27;1.90;;;1.25;;
64885;SDS011;51514;52.206;5.114;2023-07-31T14:49:53;1.83;;;1.20;;
64885;SDS011;51514;52.206;5.114;2023-07-31T14:52:18;1.98;;;1.00;;
64885;SDS011;51514;52.206;5.114;2023-07-31T14:54:44;1.65;;;1.23;;
64885;SDS011;51514;52.206;5.114;2023-07-31T14:57:10;1.35;;;1.10;;
64885;SDS011;51514;52.206;5.114;2023-07-31T14:59:35;2.70;;;1.55;;
64885;SDS011;51514;52.206;5.114;2023-07-31T15:02:01;1.77;;;1.20;;
64885;SDS011;51514;52.206;5.114;2023-07-31T15:04:26;2.42;;;1.27;;
64885;SDS011;51514;52.206;5.114;2023-07-31T15:06:52;1.38;;;0.90;;
64885;SDS011;51514;52.206;5.114;2023-07-31T15:22:57;3.60;;;1.50;;
64885;SDS011;51514;52.206;5.114;2023-07-31T15:25:23;8.13;;;1.70;;
64885;SDS011;51514;52.206;5.114;2023-07-31T15:27:48;3.58;;;1.85;;
64885;SDS011;51514;52.206;5.114;2023-07-31T15:30:13;6.88;;;2.08;;
64885;SDS011;51514;52.206;5.114;2023-07-31T15:32:39;7.55;;;2.80;;
64885;SDS011;51514;52.206;5.114;2023-07-31T15:35:05;9.40;;;1.85;;
64885;SDS011;51514;52.206;5.114;2023-07-31T15:37:31;7.60;;;1.80;;
64885;SDS011;51514;52.206;5.114;2023-07-31T15:39:56;6.30;;;2.03;;
64885;SDS011;51514;52.206;5.114;2023-07-31T15:42:21;6.90;;;1.98;;